createdAt,value
2019-05-21T00:02:05.161Z,18.07
2019-05-21T00:04:36.224Z,18.06
2019-05-21T00:07:08.991Z,18.04
2019-05-21T00:09:41.985Z,18.02
2019-05-21T00:12:13.457Z,17.97
2019-05-21T00:14:45.074Z,17.98
2019-05-21T00:17:17.467Z,17.96
2019-05-21T00:19:47.989Z,17.96
2019-05-21T00:22:18.843Z,17.96
2019-05-21T00:24:49.882Z,17.96
2019-05-21T00:27:20.800Z,17.98
2019-05-21T00:30:30.544Z,18.02
2019-05-21T00:33:37.310Z,18.02
2019-05-21T00:36:46.178Z,18.00
2019-05-21T00:39:54.142Z,18.02
2019-05-21T00:42:32.264Z,18.03
2019-05-21T00:45:04.222Z,18.01
2019-05-21T00:47:35.118Z,17.97
2019-05-21T00:50:08.384Z,17.94
2019-05-21T00:52:38.879Z,17.90
2019-05-21T00:55:09.777Z,17.91
2019-05-21T00:57:41.514Z,17.91
2019-05-21T01:00:13.250Z,17.88
2019-05-21T01:02:46.206Z,17.90
2019-05-21T01:05:19.096Z,17.86
2019-05-21T01:07:52.181Z,17.86
2019-05-21T01:10:24.142Z,17.81
2019-05-21T01:12:54.685Z,17.74
2019-05-21T01:15:27.858Z,17.72
2019-05-21T01:17:58.673Z,17.66
2019-05-21T01:20:29.909Z,17.64
2019-05-21T01:23:02.613Z,17.60
2019-05-21T01:25:33.244Z,17.58
2019-05-21T01:28:04.085Z,17.59
2019-05-21T01:30:36.553Z,17.54
2019-05-21T01:33:07.388Z,17.59
2019-05-21T01:35:40.476Z,17.64
2019-05-21T01:38:11.212Z,17.67
2019-05-21T01:40:43.887Z,17.72
2019-05-21T01:43:14.620Z,17.81
2019-05-21T01:45:47.813Z,17.78
2019-05-21T01:48:20.383Z,17.83
2019-05-21T01:50:51.015Z,17.85
2019-05-21T01:53:21.787Z,17.86
2019-05-21T01:55:55.466Z,17.85
2019-05-21T01:58:26.797Z,17.88
2019-05-21T02:00:57.728Z,17.88
2019-05-21T02:03:29.386Z,17.92
2019-05-21T02:06:00.552Z,17.92
2019-05-21T02:08:33.424Z,17.93
2019-05-21T02:11:04.687Z,17.96
2019-05-21T02:13:38.581Z,17.94
2019-05-21T02:16:11.139Z,17.99
2019-05-21T02:18:43.414Z,18.10
2019-05-21T02:21:13.944Z,18.11
2019-05-21T02:23:46.930Z,18.07
2019-05-21T02:26:18.891Z,18.05
2019-05-21T02:28:49.620Z,18.04
2019-05-21T02:31:22.093Z,18.05
2019-05-21T02:33:52.621Z,18.03
2019-05-21T02:36:23.366Z,18.03
2019-05-21T02:38:54.394Z,18.05
2019-05-21T02:41:25.232Z,18.08
2019-05-21T02:43:56.168Z,18.04
2019-05-21T02:46:26.999Z,18.04
2019-05-21T02:49:00.141Z,18.11
2019-05-21T02:51:30.631Z,18.11
2019-05-21T02:54:02.885Z,18.13
2019-05-21T02:56:35.566Z,18.22
2019-05-21T02:59:06.705Z,18.32
2019-05-21T03:01:52.798Z,18.32
2019-05-21T03:04:24.181Z,18.38
2019-05-21T03:06:57.442Z,18.39
2019-05-21T03:09:30.630Z,18.44
2019-05-21T03:12:01.767Z,18.45
2019-05-21T03:14:32.569Z,18.49
2019-05-21T03:17:03.428Z,18.50
2019-05-21T03:19:34.387Z,18.53
2019-05-21T03:22:05.106Z,18.47
2019-05-21T03:24:35.938Z,18.56
2019-05-21T03:27:08.206Z,18.62
2019-05-21T03:29:38.736Z,18.63
2019-05-21T03:32:10.905Z,18.65
2019-05-21T03:34:41.734Z,18.67
2019-05-21T03:37:12.578Z,18.71
2019-05-21T03:39:45.687Z,18.66
2019-05-21T03:42:16.409Z,18.74
2019-05-21T03:44:58.893Z,18.80
2019-05-21T03:47:20.516Z,18.84
2019-05-21T03:49:52.481Z,18.85
2019-05-21T03:52:27.310Z,18.89
2019-05-21T03:55:02.422Z,18.98
2019-05-21T03:57:30.417Z,19.03
2019-05-21T04:00:01.352Z,18.99
2019-05-21T04:02:32.700Z,19.07
2019-05-21T04:05:06.076Z,19.15
2019-05-21T04:07:36.518Z,19.06
2019-05-21T04:10:16.004Z,19.14
2019-05-21T04:12:48.982Z,19.14
2019-05-21T04:15:21.618Z,19.08
2019-05-21T04:17:57.371Z,19.07
2019-05-21T04:20:28.715Z,18.97
2019-05-21T04:22:59.857Z,19.03
2019-05-21T04:25:31.614Z,18.90
2019-05-21T04:28:03.062Z,18.84
2019-05-21T04:30:34.731Z,18.89
2019-05-21T04:33:07.907Z,18.95
2019-05-21T04:35:39.357Z,19.04
2019-05-21T04:38:11.113Z,19.12
2019-05-21T04:40:42.148Z,19.19
2019-05-21T04:43:12.883Z,19.30
2019-05-21T04:45:44.863Z,19.44
2019-05-21T04:48:15.797Z,19.51
2019-05-21T04:50:48.539Z,19.56
2019-05-21T04:53:21.359Z,19.57
2019-05-21T04:55:52.172Z,19.64
2019-05-21T04:58:23.010Z,19.65
2019-05-21T05:00:53.847Z,19.70
2019-05-21T05:03:25.701Z,19.76
2019-05-21T05:05:58.892Z,19.78
2019-05-21T05:08:31.878Z,19.81
2019-05-21T05:11:03.036Z,19.94
2019-05-21T05:13:34.688Z,20.07
2019-05-21T05:16:06.641Z,20.16
2019-05-21T05:18:37.334Z,20.15
2019-05-21T05:21:10.663Z,20.33
2019-05-21T05:23:41.496Z,20.36
2019-05-21T05:26:12.435Z,20.58
2019-05-21T05:28:42.960Z,20.68
2019-05-21T05:31:15.477Z,20.76
2019-05-21T05:33:48.254Z,20.69
2019-05-21T05:36:19.929Z,20.78
2019-05-21T05:38:51.523Z,20.95
2019-05-21T05:41:22.365Z,21.02
2019-05-21T05:43:54.588Z,21.25
2019-05-21T05:46:26.285Z,21.43
2019-05-21T05:49:01.796Z,21.53
2019-05-21T05:51:33.796Z,21.54
2019-05-21T05:54:08.617Z,21.61
2019-05-21T05:56:42.630Z,21.53
2019-05-21T05:59:15.543Z,21.75
2019-05-21T06:01:47.258Z,21.77
2019-05-21T06:04:19.455Z,22.10
2019-05-21T06:06:51.515Z,22.09
2019-05-21T06:09:22.951Z,22.20
2019-05-21T06:11:54.097Z,22.44
2019-05-21T06:14:24.724Z,22.47
2019-05-21T06:16:58.581Z,22.77
2019-05-21T06:19:29.670Z,22.58
2019-05-21T06:22:00.311Z,22.66
2019-05-21T06:24:33.801Z,22.58
2019-05-21T06:27:05.042Z,22.58
2019-05-21T06:29:39.583Z,22.50
2019-05-21T06:32:09.240Z,22.25
2019-05-21T06:34:40.153Z,22.41
2019-05-21T06:37:11.055Z,22.46
2019-05-21T06:39:42.088Z,22.52
2019-05-21T06:42:13.733Z,22.58
2019-05-21T06:44:47.470Z,22.41
2019-05-21T06:47:21.437Z,22.62
2019-05-21T06:49:52.307Z,22.60
2019-05-21T06:52:24.192Z,22.43
2019-05-21T06:54:55.281Z,22.44
2019-05-21T06:57:28.981Z,22.32
2019-05-21T07:00:01.251Z,22.36
2019-05-21T07:02:34.443Z,22.27
2019-05-21T07:05:05.530Z,22.25
2019-05-21T07:07:36.521Z,22.18
2019-05-21T07:10:09.071Z,22.32
2019-05-21T07:12:43.166Z,22.35
2019-05-21T07:15:16.300Z,22.34
2019-05-21T07:17:47.360Z,22.35
2019-05-21T07:20:19.870Z,22.38
2019-05-21T07:22:50.774Z,22.48
2019-05-21T07:25:21.893Z,22.42
2019-05-21T07:27:54.495Z,22.47
2019-05-21T07:30:25.830Z,22.81
2019-05-21T07:32:59.282Z,23.16
2019-05-21T07:35:30.388Z,23.47
2019-05-21T07:38:00.986Z,23.63
2019-05-21T07:40:32.045Z,24.02
2019-05-21T07:43:02.965Z,24.21
2019-05-21T07:45:35.046Z,24.41
2019-05-21T07:48:06.067Z,24.61
2019-05-21T07:50:37.430Z,24.82
2019-05-21T07:53:10.394Z,24.94
2019-05-21T07:55:41.128Z,24.82
2019-05-21T07:58:12.474Z,24.60
2019-05-21T08:00:43.825Z,25.12
2019-05-21T08:03:14.762Z,25.25
2019-05-21T08:05:45.494Z,25.21
2019-05-21T08:08:16.551Z,25.26
2019-05-21T08:10:47.462Z,25.51
2019-05-21T08:13:20.145Z,25.70
2019-05-21T08:15:52.734Z,25.42
2019-05-21T08:18:23.670Z,25.55
2019-05-21T08:20:54.501Z,25.44
2019-05-21T08:23:25.441Z,25.48
2019-05-21T08:25:56.376Z,25.53
2019-05-21T08:28:28.340Z,25.56
2019-05-21T08:31:02.209Z,25.71
2019-05-21T08:33:32.359Z,25.97
2019-05-21T08:36:04.866Z,25.55
2019-05-21T08:38:36.694Z,25.78
2019-05-21T08:41:09.171Z,25.86
2019-05-21T08:43:40.203Z,26.15
2019-05-21T08:46:11.959Z,26.52
2019-05-21T08:48:42.904Z,26.96
2019-05-21T08:51:13.935Z,27.11
2019-05-21T08:53:45.346Z,26.88
2019-05-21T08:56:16.232Z,26.81
2019-05-21T08:58:47.273Z,26.97
2019-05-21T09:01:17.811Z,26.71
2019-05-21T09:03:48.744Z,26.51
2019-05-21T09:06:19.560Z,26.52
2019-05-21T09:08:50.806Z,26.27
2019-05-21T09:11:22.358Z,26.18
2019-05-21T09:13:54.839Z,25.81
2019-05-21T09:16:25.775Z,25.42
2019-05-21T09:18:56.711Z,25.38
2019-05-21T09:21:27.583Z,25.22
2019-05-21T09:23:59.400Z,25.08
2019-05-21T09:26:30.337Z,24.99
2019-05-21T09:29:01.380Z,24.90
2019-05-21T09:31:34.570Z,24.78
2019-05-21T09:34:07.882Z,24.70
2019-05-21T09:36:41.054Z,24.70
2019-05-21T09:39:14.755Z,24.79
2019-05-21T09:41:46.308Z,25.00
2019-05-21T09:44:17.258Z,25.08
2019-05-21T09:46:48.392Z,25.35
2019-05-21T09:49:20.346Z,25.56
2019-05-21T09:51:53.778Z,25.71
2019-05-21T09:54:24.901Z,25.95
2019-05-21T09:56:56.402Z,25.96
2019-05-21T09:59:32.804Z,26.21
2019-05-21T10:02:19.154Z,26.23
2019-05-21T10:04:51.620Z,26.49
2019-05-21T10:07:37.962Z,26.84
2019-05-21T10:09:56.007Z,27.09
2019-05-21T10:12:27.247Z,27.54
2019-05-21T10:14:57.883Z,27.92
2019-05-21T10:17:28.928Z,28.12
2019-05-21T10:19:59.929Z,28.32
2019-05-21T10:22:30.792Z,28.14
2019-05-21T10:25:01.954Z,28.00
2019-05-21T10:27:34.718Z,28.38
2019-05-21T10:30:10.818Z,28.90
2019-05-21T10:32:42.844Z,28.66
2019-05-21T10:35:15.523Z,28.78
2019-05-21T10:37:55.139Z,28.84
2019-05-21T10:40:21.558Z,28.26
2019-05-21T10:42:52.832Z,27.78
2019-05-21T10:45:23.983Z,27.03
2019-05-21T10:47:55.227Z,26.92
2019-05-21T10:50:26.209Z,26.62
2019-05-21T10:52:58.871Z,26.50
2019-05-21T10:55:30.691Z,26.49
2019-05-21T10:58:01.176Z,26.38
2019-05-21T11:00:32.882Z,26.35
2019-05-21T11:03:05.365Z,26.42
2019-05-21T11:05:38.543Z,26.54
2019-05-21T11:08:23.694Z,26.71
2019-05-21T11:10:43.666Z,26.70
2019-05-21T11:13:14.631Z,26.86
2019-05-21T11:15:46.170Z,27.24
2019-05-21T11:18:18.151Z,27.68
2019-05-21T11:20:50.102Z,28.26
2019-05-21T11:23:21.043Z,28.88
2019-05-21T11:25:52.185Z,29.62
2019-05-21T11:28:22.929Z,30.94
2019-05-21T11:30:54.882Z,31.36
2019-05-21T11:33:27.562Z,30.85
2019-05-21T11:35:58.601Z,30.81
2019-05-21T11:38:39.546Z,31.45
2019-05-21T11:41:03.584Z,32.14
2019-05-21T11:43:34.305Z,33.11
2019-05-21T11:46:05.521Z,33.51
2019-05-21T11:48:36.157Z,32.54
2019-05-21T11:51:12.543Z,31.86
2019-05-21T11:53:43.553Z,31.75
2019-05-21T11:56:14.596Z,32.33
2019-05-21T11:58:47.168Z,32.63
2019-05-21T12:01:20.462Z,32.87
2019-05-21T12:03:51.503Z,33.16
2019-05-21T12:06:22.234Z,33.86
2019-05-21T12:08:56.670Z,34.80
2019-05-21T12:11:26.377Z,34.87
2019-05-21T12:13:59.279Z,35.23
2019-05-21T12:16:32.440Z,36.55
2019-05-21T12:19:07.731Z,37.22
2019-05-21T12:21:36.152Z,36.73
2019-05-21T12:24:07.465Z,36.24
2019-05-21T12:26:41.104Z,36.42
2019-05-21T12:29:14.193Z,35.14
2019-05-21T12:31:45.766Z,33.84
2019-05-21T12:34:16.368Z,33.25
2019-05-21T12:36:47.616Z,32.33
2019-05-21T12:39:22.442Z,31.40
2019-05-21T12:41:53.589Z,30.86
2019-05-21T12:44:24.573Z,30.68
2019-05-21T12:46:58.656Z,30.62
2019-05-21T12:49:31.344Z,30.64
2019-05-21T12:52:02.255Z,30.75
2019-05-21T12:54:33.859Z,30.43
2019-05-21T12:57:08.016Z,31.18
2019-05-21T12:59:40.763Z,31.47
2019-05-21T13:02:11.431Z,31.75
2019-05-21T13:04:42.463Z,32.19
2019-05-21T13:07:14.670Z,31.86
2019-05-21T13:09:49.202Z,31.58
2019-05-21T13:12:19.560Z,31.27
2019-05-21T13:14:53.077Z,31.80
2019-05-21T13:17:26.000Z,31.35
2019-05-21T13:19:59.569Z,32.23
2019-05-21T13:22:31.876Z,32.67
2019-05-21T13:25:02.752Z,33.26
2019-05-21T13:27:33.742Z,33.00
2019-05-21T13:30:06.619Z,33.06
2019-05-21T13:32:37.326Z,34.00
2019-05-21T13:35:09.900Z,34.15
2019-05-21T13:37:40.530Z,34.24
2019-05-21T13:40:12.514Z,34.01
2019-05-21T13:42:43.222Z,33.03
2019-05-21T13:45:14.600Z,34.05
2019-05-21T13:47:45.096Z,33.77
2019-05-21T13:50:17.365Z,32.66
2019-05-21T13:52:49.878Z,31.61
2019-05-21T13:55:22.627Z,31.10
2019-05-21T13:57:55.504Z,31.00
2019-05-21T14:00:34.327Z,31.74
2019-05-21T14:03:07.429Z,33.36
2019-05-21T14:05:38.981Z,34.56
2019-05-21T14:08:09.798Z,34.81
2019-05-21T14:10:41.063Z,35.93
2019-05-21T14:13:11.989Z,36.11
2019-05-21T14:15:43.578Z,36.33
2019-05-21T14:18:14.806Z,36.33
2019-05-21T14:20:46.955Z,36.06
2019-05-21T14:23:18.799Z,35.93
2019-05-21T14:25:51.899Z,34.51
2019-05-21T14:28:22.826Z,34.51
2019-05-21T14:30:54.185Z,34.51
2019-05-21T14:33:25.022Z,32.78
2019-05-21T14:35:55.681Z,31.25
2019-05-21T14:38:26.471Z,31.51
2019-05-21T14:40:57.613Z,30.22
2019-05-21T14:43:29.373Z,30.18
2019-05-21T14:46:00.924Z,30.91
2019-05-21T14:48:31.830Z,32.37
2019-05-21T14:51:03.309Z,33.44
2019-05-21T14:53:35.580Z,33.39
2019-05-21T14:56:08.171Z,33.37
2019-05-21T14:58:40.295Z,33.81
2019-05-21T15:01:10.992Z,33.45
2019-05-21T15:03:43.116Z,32.91
2019-05-21T15:06:13.967Z,31.28
2019-05-21T15:08:46.625Z,30.64
2019-05-21T15:11:17.261Z,29.76
2019-05-21T15:13:48.199Z,28.87
2019-05-21T15:16:19.550Z,29.04
2019-05-21T15:18:50.793Z,29.23
2019-05-21T15:21:27.259Z,30.06
2019-05-21T15:23:58.187Z,30.57
2019-05-21T15:26:29.351Z,31.22
2019-05-21T15:29:00.282Z,32.45
2019-05-21T15:31:31.173Z,31.80
2019-05-21T15:34:02.799Z,32.17
2019-05-21T15:36:33.592Z,31.73
2019-05-21T15:39:09.007Z,31.03
2019-05-21T15:41:39.772Z,31.15
2019-05-21T15:44:10.717Z,31.72
2019-05-21T15:46:49.542Z,30.97
2019-05-21T15:49:13.874Z,31.10
2019-05-21T15:51:45.688Z,30.66
2019-05-21T15:54:17.637Z,31.22
2019-05-21T15:56:48.783Z,30.87
2019-05-21T15:59:19.928Z,30.01
2019-05-21T16:01:52.600Z,30.29
2019-05-21T16:04:25.175Z,30.79
2019-05-21T16:06:56.017Z,31.36
2019-05-21T16:09:26.623Z,31.40
2019-05-21T16:12:00.562Z,31.90
2019-05-21T16:14:31.793Z,30.76
2019-05-21T16:17:04.797Z,29.01
2019-05-21T16:19:36.333Z,28.91
2019-05-21T16:22:09.720Z,27.94
2019-05-21T16:24:40.966Z,27.28
2019-05-21T16:27:13.034Z,26.32
2019-05-21T16:29:44.072Z,26.00
2019-05-21T16:32:15.724Z,25.80
2019-05-21T16:34:46.868Z,25.50
2019-05-21T16:37:18.931Z,25.08
2019-05-21T16:39:49.426Z,25.09
2019-05-21T16:42:20.314Z,24.88
2019-05-21T16:44:51.511Z,24.76
2019-05-21T16:47:23.706Z,24.83
2019-05-21T16:49:57.210Z,24.74
2019-05-21T16:52:29.490Z,24.85
2019-05-21T16:55:01.429Z,25.11
2019-05-21T16:57:34.622Z,24.98
2019-05-21T17:00:09.505Z,24.92
2019-05-21T17:02:40.093Z,24.56
2019-05-21T17:05:12.349Z,24.40
2019-05-21T17:07:44.007Z,24.07
2019-05-21T17:10:15.130Z,23.85
2019-05-21T17:12:47.572Z,23.78
2019-05-21T17:15:19.499Z,23.64
2019-05-21T17:17:49.918Z,23.49
2019-05-21T17:20:20.954Z,23.38
2019-05-21T17:22:52.094Z,23.31
2019-05-21T17:25:23.843Z,23.18
2019-05-21T17:27:55.996Z,23.04
2019-05-21T17:30:26.748Z,22.96
2019-05-21T17:32:57.783Z,22.89
2019-05-21T17:35:30.554Z,22.80
2019-05-21T17:38:01.189Z,22.80
2019-05-21T17:40:32.443Z,22.73
2019-05-21T17:43:04.402Z,22.64
2019-05-21T17:45:35.031Z,22.58
2019-05-21T17:48:05.904Z,22.52
2019-05-21T17:50:39.264Z,22.47
2019-05-21T17:53:10.195Z,22.43
2019-05-21T17:55:41.247Z,22.38
2019-05-21T17:58:13.596Z,22.32
2019-05-21T18:00:48.477Z,22.28
2019-05-21T18:03:19.488Z,22.22
2019-05-21T18:05:51.332Z,22.20
2019-05-21T18:08:22.749Z,22.14
2019-05-21T18:10:53.819Z,22.06
2019-05-21T18:13:25.885Z,22.05
2019-05-21T18:15:56.824Z,22.00
2019-05-21T18:18:29.117Z,21.98
2019-05-21T18:21:00.129Z,21.89
2019-05-21T18:23:30.765Z,21.86
2019-05-21T18:26:02.310Z,21.85
2019-05-21T18:28:33.664Z,21.74
2019-05-21T18:31:05.455Z,21.75
2019-05-21T18:33:36.147Z,21.68
2019-05-21T18:36:06.988Z,21.67
2019-05-21T18:38:40.175Z,21.58
2019-05-21T18:41:12.358Z,21.55
2019-05-21T18:43:42.869Z,21.53
2019-05-21T18:46:14.012Z,21.50
2019-05-21T18:48:44.441Z,21.43
2019-05-21T18:51:16.195Z,21.40
2019-05-21T18:53:47.641Z,21.36
2019-05-21T18:56:18.686Z,21.33
2019-05-21T18:58:49.844Z,21.34
2019-05-21T19:01:21.920Z,21.30
2019-05-21T19:03:52.821Z,21.25
2019-05-21T19:06:27.866Z,21.17
2019-05-21T19:08:58.370Z,21.17
2019-05-21T19:11:30.043Z,21.13
2019-05-21T19:14:00.672Z,21.10
2019-05-21T19:16:31.748Z,21.11
2019-05-21T19:19:02.331Z,21.10
2019-05-21T19:21:33.480Z,21.08
2019-05-21T19:24:06.365Z,21.06
2019-05-21T19:26:37.609Z,21.00
2019-05-21T19:29:08.647Z,20.97
2019-05-21T19:31:40.726Z,20.98
2019-05-21T19:34:12.097Z,20.93
2019-05-21T19:36:43.675Z,20.90
2019-05-21T19:39:15.287Z,20.86
2019-05-21T19:41:46.713Z,20.84
2019-05-21T19:44:20.115Z,20.79
2019-05-21T19:46:51.214Z,20.74
2019-05-21T19:49:22.217Z,20.73
2019-05-21T19:51:53.842Z,20.68
2019-05-21T19:54:24.786Z,20.68
2019-05-21T19:56:55.821Z,20.64
2019-05-21T19:59:26.678Z,20.61
2019-05-21T20:01:57.803Z,20.58
2019-05-21T20:04:30.172Z,20.54
2019-05-21T20:07:01.102Z,20.52
2019-05-21T20:09:32.758Z,20.54
2019-05-21T20:12:04.622Z,20.49
2019-05-21T20:14:35.758Z,20.43
2019-05-21T20:17:08.920Z,20.36
2019-05-21T20:19:41.376Z,20.33
2019-05-21T20:22:12.767Z,20.33
2019-05-21T20:24:43.973Z,20.31
2019-05-21T20:27:16.419Z,20.31
2019-05-21T20:29:49.189Z,20.26
2019-05-21T20:32:21.330Z,20.26
2019-05-21T20:34:52.678Z,20.28
2019-05-21T20:37:28.020Z,20.24
2019-05-21T20:39:59.878Z,20.25
2019-05-21T20:42:31.949Z,20.22
2019-05-21T20:45:03.183Z,20.23
2019-05-21T20:47:34.741Z,20.22
2019-05-21T20:50:12.137Z,20.22
2019-05-21T20:52:42.144Z,20.24
2019-05-21T20:55:17.377Z,20.19
2019-05-21T20:57:47.981Z,20.20
2019-05-21T21:00:23.467Z,20.18
2019-05-21T21:02:54.720Z,20.17
2019-05-21T21:05:26.545Z,20.16
2019-05-21T21:07:58.107Z,20.14
2019-05-21T21:10:32.528Z,20.12
2019-05-21T21:13:07.867Z,20.12
2019-05-21T21:15:39.519Z,20.15
2019-05-21T21:18:10.428Z,20.16
2019-05-21T21:20:43.551Z,20.17
2019-05-21T21:23:17.049Z,20.16
2019-05-21T21:25:48.604Z,20.13
2019-05-21T21:28:20.352Z,20.17
2019-05-21T21:30:52.727Z,20.19
2019-05-21T21:33:25.569Z,20.17
2019-05-21T21:35:57.777Z,20.19
2019-05-21T21:38:32.189Z,20.15
2019-05-21T21:41:04.870Z,20.10
2019-05-21T21:43:36.342Z,20.04
2019-05-21T21:46:09.748Z,20.02
2019-05-21T21:48:41.063Z,19.98
2019-05-21T21:51:13.250Z,19.96
2019-05-21T21:53:45.732Z,19.95
2019-05-21T21:56:16.633Z,20.02
2019-05-21T21:58:49.735Z,19.99
2019-05-21T22:01:34.587Z,20.02
2019-05-21T22:04:07.472Z,19.95
2019-05-21T22:06:41.132Z,19.89
2019-05-21T22:09:13.851Z,19.86
2019-05-21T22:11:47.552Z,19.89
2019-05-21T22:14:18.496Z,19.90
2019-05-21T22:16:51.805Z,19.88
2019-05-21T22:19:24.007Z,19.82
2019-05-21T22:21:55.465Z,19.81
2019-05-21T22:24:28.014Z,19.84
2019-05-21T22:26:59.692Z,19.82
2019-05-21T22:29:30.986Z,19.80
2019-05-21T22:32:01.834Z,19.72
2019-05-21T22:34:33.213Z,19.70
2019-05-21T22:37:07.985Z,19.72
2019-05-21T22:39:42.504Z,19.71
2019-05-21T22:42:17.231Z,19.71
2019-05-21T22:44:48.272Z,19.71
2019-05-21T22:47:21.460Z,19.70
2019-05-21T22:49:52.609Z,19.70
2019-05-21T22:52:25.278Z,19.71
2019-05-21T22:54:56.524Z,19.67
2019-05-21T22:57:30.130Z,19.66
2019-05-21T23:00:00.758Z,19.68
2019-05-21T23:02:35.790Z,19.69
2019-05-21T23:05:10.612Z,19.67
2019-05-21T23:07:42.575Z,19.68
2019-05-21T23:10:14.235Z,19.67
2019-05-21T23:12:45.375Z,19.64
2019-05-21T23:15:25.085Z,19.57
2019-05-21T23:17:50.528Z,19.57
2019-05-21T23:20:24.333Z,19.52
2019-05-21T23:22:57.010Z,19.48
2019-05-21T23:25:30.502Z,19.49
2019-05-21T23:28:03.711Z,19.41
2019-05-21T23:30:35.045Z,19.33
2019-05-21T23:33:07.228Z,19.25
2019-05-21T23:35:39.852Z,19.26
2019-05-21T23:38:13.217Z,19.28
2019-05-21T23:40:44.638Z,19.24
2019-05-21T23:43:15.490Z,19.27
2019-05-21T23:45:48.155Z,19.32
2019-05-21T23:48:22.762Z,19.33
2019-05-21T23:50:54.419Z,19.19
2019-05-21T23:53:26.383Z,19.19
2019-05-21T23:55:57.758Z,19.23
2019-05-21T23:58:28.654Z,19.18
